createdAt,value
2017-09-08T00:00:02.774Z,61.86
2017-09-08T00:00:43.229Z,61.76
2017-09-08T00:01:23.708Z,61.86
2017-09-08T00:02:04.309Z,61.86
2017-09-08T00:02:44.715Z,61.76
2017-09-08T00:03:25.166Z,61.76
2017-09-08T00:04:05.893Z,61.76
2017-09-08T00:04:46.292Z,61.57
2017-09-08T00:05:26.738Z,61.86
2017-09-08T00:06:07.288Z,61.86
2017-09-08T00:06:47.738Z,61.66
2017-09-08T00:07:28.196Z,61.66
2017-09-08T00:08:08.680Z,61.76
2017-09-08T00:08:49.136Z,61.66
2017-09-08T00:09:29.589Z,61.66
2017-09-08T00:10:10.130Z,61.76
2017-09-08T00:10:50.608Z,61.66
2017-09-08T00:11:31.068Z,61.66
2017-09-08T00:12:11.521Z,61.76
2017-09-08T00:12:51.987Z,61.76
2017-09-08T00:13:32.439Z,61.76
2017-09-08T00:14:12.898Z,61.66
2017-09-08T00:14:53.345Z,61.66
2017-09-08T00:15:33.805Z,61.86
2017-09-08T00:16:14.264Z,61.76
2017-09-08T00:16:54.722Z,61.57
2017-09-08T00:17:35.174Z,61.66
2017-09-08T00:18:15.630Z,61.66
2017-09-08T00:18:56.079Z,61.76
2017-09-08T00:19:36.530Z,61.86
2017-09-08T00:20:16.985Z,61.66
2017-09-08T00:20:57.436Z,61.66
2017-09-08T00:21:37.886Z,61.57
2017-09-08T00:22:18.342Z,61.66
2017-09-08T00:22:58.798Z,61.86
2017-09-08T00:23:39.247Z,61.76
2017-09-08T00:24:19.688Z,61.47
2017-09-08T00:25:00.136Z,61.76
2017-09-08T00:25:40.590Z,61.47
2017-09-08T00:26:21.063Z,61.47
2017-09-08T00:27:01.526Z,61.27
2017-09-08T00:27:41.982Z,61.57
2017-09-08T00:28:22.429Z,61.27
2017-09-08T00:29:02.886Z,61.37
2017-09-08T00:29:43.348Z,61.37
2017-09-08T00:30:23.802Z,61.76
2017-09-08T00:31:04.258Z,61.27
2017-09-08T00:31:44.709Z,61.47
2017-09-08T00:32:25.168Z,61.76
2017-09-08T00:33:05.606Z,61.95
2017-09-08T00:33:46.053Z,61.27
2017-09-08T00:34:26.632Z,61.86
2017-09-08T00:35:07.055Z,61.37
2017-09-08T00:35:47.510Z,61.47
2017-09-08T00:36:27.961Z,61.66
2017-09-08T00:37:08.409Z,61.27
2017-09-08T00:37:48.860Z,61.57
2017-09-08T00:38:29.314Z,61.86
2017-09-08T00:39:09.773Z,61.66
2017-09-08T00:39:50.232Z,61.66
2017-09-08T00:40:30.691Z,61.66
2017-09-08T00:41:11.160Z,61.76
2017-09-08T00:41:51.622Z,61.66
2017-09-08T00:42:32.220Z,61.76
2017-09-08T00:43:12.673Z,61.57
2017-09-08T00:43:53.121Z,61.66
2017-09-08T00:44:33.580Z,61.76
2017-09-08T00:45:14.059Z,61.66
2017-09-08T00:45:54.517Z,61.66
2017-09-08T00:46:34.970Z,61.66
2017-09-08T00:47:15.424Z,61.66
2017-09-08T00:47:55.877Z,61.57
2017-09-08T00:48:36.341Z,61.76
2017-09-08T00:49:16.795Z,61.76
2017-09-08T00:49:57.228Z,61.66
2017-09-08T00:50:37.685Z,61.76
2017-09-08T00:51:18.147Z,61.76
2017-09-08T00:51:58.598Z,61.66
2017-09-08T00:52:39.059Z,61.76
2017-09-08T00:53:19.511Z,61.66
2017-09-08T00:53:59.963Z,61.76
2017-09-08T00:54:40.423Z,61.66
2017-09-08T00:55:20.873Z,61.57
2017-09-08T00:56:01.323Z,61.66
2017-09-08T00:56:41.773Z,61.57
2017-09-08T00:57:22.241Z,61.66
2017-09-08T00:58:02.701Z,61.57
2017-09-08T00:58:43.175Z,61.66
2017-09-08T00:59:23.604Z,61.63
2017-09-08T01:00:04.051Z,61.66
2017-09-08T01:00:44.504Z,61.76
2017-09-08T01:01:24.979Z,61.76
2017-09-08T01:02:05.414Z,61.66
2017-09-08T01:02:45.868Z,61.66
2017-09-08T01:03:26.328Z,61.66
2017-09-08T01:04:06.850Z,61.66
2017-09-08T01:04:47.301Z,61.86
2017-09-08T01:05:27.743Z,61.66
2017-09-08T01:06:08.187Z,61.86
2017-09-08T01:06:48.637Z,61.66
2017-09-08T01:07:29.090Z,61.86
2017-09-08T01:09:46.983Z,61.66
2017-09-08T01:10:27.437Z,61.76
2017-09-08T01:11:07.905Z,61.66
2017-09-08T01:11:48.353Z,61.66
2017-09-08T01:12:28.806Z,61.66
2017-09-08T01:13:09.259Z,61.76
2017-09-08T01:13:49.718Z,61.76
2017-09-08T01:14:30.173Z,61.66
2017-09-08T01:15:10.628Z,61.76
2017-09-08T01:15:51.085Z,61.76
2017-09-08T01:16:31.538Z,61.47
2017-09-08T01:17:12.002Z,61.76
2017-09-08T01:17:52.449Z,61.66
2017-09-08T01:18:32.915Z,61.66
2017-09-08T01:19:13.363Z,61.66
2017-09-08T01:19:53.821Z,61.76
2017-09-08T01:20:34.278Z,61.76
2017-09-08T01:21:14.735Z,61.66
2017-09-08T01:21:55.185Z,61.66
2017-09-08T01:22:36.115Z,61.66
2017-09-08T01:23:16.540Z,61.76
2017-09-08T01:23:56.977Z,61.76
2017-09-08T01:24:37.429Z,61.66
2017-09-08T01:25:17.884Z,61.76
2017-09-08T01:25:58.342Z,61.76
2017-09-08T01:26:38.796Z,61.76
2017-09-08T01:27:19.252Z,61.57
2017-09-08T01:27:59.705Z,61.66
2017-09-08T01:28:40.167Z,61.57
2017-09-08T01:29:20.626Z,61.76
2017-09-08T01:30:01.078Z,61.76
2017-09-08T01:30:41.581Z,61.76
2017-09-08T01:31:22.033Z,61.57
2017-09-08T01:32:02.495Z,61.66
2017-09-08T01:32:42.960Z,61.57
2017-09-08T01:33:23.412Z,61.66
2017-09-08T01:34:03.877Z,61.57
2017-09-08T01:34:44.323Z,61.66
2017-09-08T01:35:24.772Z,61.76
2017-09-08T01:36:05.223Z,61.66
2017-09-08T01:36:45.669Z,61.76
2017-09-08T01:37:26.121Z,61.57
2017-09-08T01:38:06.567Z,61.86
2017-09-08T01:38:47.020Z,61.86
2017-09-08T01:39:27.468Z,61.66
2017-09-08T01:40:07.921Z,61.57
2017-09-08T01:40:48.379Z,61.76
2017-09-08T01:41:28.837Z,61.86
2017-09-08T01:42:09.285Z,61.66
2017-09-08T01:42:49.742Z,61.66
2017-09-08T01:43:30.198Z,61.95
2017-09-08T01:44:10.654Z,61.92
2017-09-08T01:44:51.110Z,61.86
2017-09-08T01:45:31.563Z,61.66
2017-09-08T01:46:12.026Z,61.76
2017-09-08T01:46:52.468Z,61.86
2017-09-08T01:47:32.921Z,61.86
2017-09-08T01:48:13.375Z,61.86
2017-09-08T01:48:53.830Z,61.86
2017-09-08T01:49:34.297Z,61.76
2017-09-08T01:50:14.745Z,61.66
2017-09-08T01:50:55.207Z,61.86
2017-09-08T01:51:35.658Z,61.76
2017-09-08T01:52:16.095Z,61.66
2017-09-08T01:52:56.537Z,61.86
2017-09-08T01:53:36.990Z,61.57
2017-09-08T01:54:17.444Z,61.76
2017-09-08T01:54:57.898Z,62.24
2017-09-08T01:55:38.352Z,61.76
2017-09-08T01:56:18.811Z,62.24
2017-09-08T01:56:59.264Z,61.76
2017-09-08T01:57:39.721Z,61.73
2017-09-08T01:58:20.183Z,62.34
2017-09-08T01:59:00.647Z,62.34
2017-09-08T01:59:41.096Z,61.76
2017-09-08T02:00:21.633Z,62.31
2017-09-08T02:01:02.079Z,62.34
2017-09-08T02:01:42.525Z,62.05
2017-09-08T02:02:23.028Z,62.24
2017-09-08T02:03:03.483Z,62.05
2017-09-08T02:03:43.935Z,62.24
2017-09-08T02:04:24.425Z,61.92
2017-09-08T02:05:04.882Z,61.92
2017-09-08T02:05:45.328Z,62.02
2017-09-08T02:06:25.808Z,62.12
2017-09-08T02:07:06.270Z,62.02
2017-09-08T02:07:46.717Z,62.02
2017-09-08T02:08:27.170Z,62.15
2017-09-08T02:09:07.618Z,62.15
2017-09-08T02:09:48.074Z,62.15
2017-09-08T02:10:28.533Z,62.21
2017-09-08T02:12:21.064Z,62.15
2017-09-08T02:13:01.550Z,62.12
2017-09-08T02:13:42.008Z,62.12
2017-09-08T02:15:54.838Z,62.15
2017-09-08T02:16:35.292Z,62.21
2017-09-08T02:17:15.746Z,62.12
2017-09-08T02:17:56.198Z,62.15
2017-09-08T02:18:36.643Z,61.92
2017-09-08T02:19:17.097Z,62.44
2017-09-08T02:19:57.554Z,62.15
2017-09-08T02:20:37.992Z,62.12
2017-09-08T02:21:18.447Z,61.92
2017-09-08T02:21:58.903Z,61.83
2017-09-08T02:22:39.356Z,62.12
2017-09-08T02:23:19.807Z,62.6
2017-09-08T02:24:00.256Z,62.12
2017-09-08T02:24:40.727Z,61.92
2017-09-08T02:25:21.166Z,62.12
2017-09-08T02:26:01.621Z,62.21
2017-09-08T02:26:42.072Z,62.21
2017-09-08T02:27:22.515Z,62.02
2017-09-08T02:28:02.969Z,62.21
2017-09-08T02:28:43.423Z,62.21
2017-09-08T02:29:23.877Z,62.12
2017-09-08T02:30:04.330Z,62.12
2017-09-08T02:30:44.784Z,62.02
2017-09-08T02:31:25.236Z,62.12
2017-09-08T02:32:05.690Z,62.12
2017-09-08T02:32:46.153Z,62.12
2017-09-08T02:33:26.606Z,62.31
2017-09-08T02:34:07.058Z,62.12
2017-09-08T02:34:47.510Z,62.12
2017-09-08T02:35:27.967Z,62.12
2017-09-08T02:36:08.417Z,62.21
2017-09-08T02:36:48.869Z,62.31
2017-09-08T02:37:29.320Z,62.12
2017-09-08T02:38:09.773Z,62.21
2017-09-08T02:38:50.236Z,62.02
2017-09-08T02:39:30.691Z,62.02
2017-09-08T02:40:11.215Z,62.4
2017-09-08T02:40:51.704Z,62.21
2017-09-08T02:41:32.101Z,62.31
2017-09-08T02:42:12.565Z,62.21
2017-09-08T02:42:53.015Z,62.21
2017-09-08T02:43:33.473Z,62.21
2017-09-08T02:44:13.933Z,62.02
2017-09-08T02:44:54.384Z,62.4
2017-09-08T02:45:34.843Z,62.02
2017-09-08T02:46:15.293Z,62.12
2017-09-08T02:46:55.750Z,62.21
2017-09-08T02:47:36.195Z,61.92
2017-09-08T02:48:16.648Z,61.83
2017-09-08T02:48:57.107Z,62.12
2017-09-08T02:49:37.564Z,62.21
2017-09-08T02:50:18.026Z,62.21
2017-09-08T02:50:58.487Z,62.02
2017-09-08T02:51:38.939Z,62.21
2017-09-08T02:52:19.391Z,61.73
2017-09-08T02:52:59.842Z,61.92
2017-09-08T02:53:40.299Z,62.21
2017-09-08T02:54:20.746Z,62.31
2017-09-08T02:55:01.195Z,62.12
2017-09-08T02:55:41.649Z,62.21
2017-09-08T02:56:22.199Z,62.12
2017-09-08T02:57:02.667Z,62.12
2017-09-08T02:57:43.122Z,62.02
2017-09-08T02:58:23.620Z,62.02
2017-09-08T02:59:04.075Z,62.12
2017-09-08T02:59:44.519Z,62.02
2017-09-08T03:00:25.030Z,62.4
2017-09-08T03:01:05.489Z,62.31
2017-09-08T03:01:45.940Z,62.5
2017-09-08T03:02:26.395Z,62.5
2017-09-08T03:03:06.849Z,62.31
2017-09-08T03:03:47.306Z,62.7
2017-09-08T03:04:27.773Z,62.5
2017-09-08T03:05:08.225Z,62.6
2017-09-08T03:05:48.678Z,62.6
2017-09-08T03:06:29.127Z,62.6
2017-09-08T03:07:09.588Z,62.6
2017-09-08T03:07:50.041Z,62.6
2017-09-08T03:08:30.498Z,62.31
2017-09-08T03:09:10.962Z,62.31
2017-09-08T03:09:51.425Z,62.31
2017-09-08T03:10:31.890Z,62.6
2017-09-08T03:11:12.398Z,62.31
2017-09-08T03:11:52.852Z,62.31
2017-09-08T03:12:33.303Z,62.21
2017-09-08T03:13:13.760Z,62.21
2017-09-08T03:13:54.213Z,62.4
2017-09-08T03:14:34.665Z,62.5
2017-09-08T03:15:15.119Z,62.5
2017-09-08T03:15:55.572Z,62.5
2017-09-08T03:16:36.033Z,62.6
2017-09-08T03:17:16.483Z,62.7
2017-09-08T03:17:56.936Z,62.6
2017-09-08T03:18:37.391Z,62.6
2017-09-08T03:19:17.843Z,62.7
2017-09-08T03:19:58.302Z,62.7
2017-09-08T03:20:38.756Z,62.6
2017-09-08T03:21:19.207Z,62.5
2017-09-08T03:21:59.661Z,62.5
2017-09-08T03:22:40.117Z,62.5
2017-09-08T03:23:20.566Z,62.5
2017-09-08T03:24:01.013Z,62.5
2017-09-08T03:24:41.473Z,62.6
2017-09-08T03:25:21.930Z,62.6
2017-09-08T03:26:02.385Z,62.7
2017-09-08T03:26:42.841Z,62.6
2017-09-08T03:27:23.291Z,62.5
2017-09-08T03:28:03.738Z,62.21
2017-09-08T03:28:44.197Z,62.31
2017-09-08T03:29:24.656Z,62.5
2017-09-08T03:30:05.104Z,62.21
2017-09-08T03:30:45.565Z,62.5
2017-09-08T03:31:26.123Z,62.21
2017-09-08T03:32:06.575Z,62.4
2017-09-08T03:32:47.052Z,62.5
2017-09-08T03:33:27.479Z,62.4
2017-09-08T03:34:07.928Z,62.4
2017-09-08T03:34:48.367Z,62.4
2017-09-08T03:35:28.873Z,62.4
2017-09-08T03:36:09.332Z,62.6
2017-09-08T03:36:49.783Z,62.4
2017-09-08T03:37:30.241Z,62.6
2017-09-08T03:38:10.706Z,62.4
2017-09-08T03:38:51.154Z,62.7
2017-09-08T03:39:31.719Z,62.7
2017-09-08T03:40:12.171Z,62.4
2017-09-08T03:40:52.623Z,62.7
2017-09-08T03:41:33.086Z,62.7
2017-09-08T03:42:13.544Z,62.6
2017-09-08T03:42:53.991Z,62.7
2017-09-08T03:43:34.490Z,62.5
2017-09-08T03:44:14.930Z,62.6
2017-09-08T03:44:55.386Z,62.7
2017-09-08T03:45:35.865Z,62.6
2017-09-08T03:46:16.326Z,62.6
2017-09-08T03:46:56.786Z,62.6
2017-09-08T03:47:37.241Z,62.5
2017-09-08T03:48:17.697Z,62.5
2017-09-08T03:48:58.147Z,62.5
2017-09-08T03:49:38.594Z,62.4
2017-09-08T03:50:19.048Z,62.4
2017-09-08T03:50:59.496Z,62.5
2017-09-08T03:51:39.951Z,62.6
2017-09-08T03:52:20.403Z,62.6
2017-09-08T03:53:00.902Z,62.6
2017-09-08T03:53:41.363Z,62.7
2017-09-08T03:54:21.808Z,62.98
2017-09-08T03:55:02.318Z,62.7
2017-09-08T03:55:42.767Z,62.79
2017-09-08T03:56:23.212Z,62.79
2017-09-08T03:57:03.667Z,62.89
2017-09-08T03:57:44.125Z,62.89
2017-09-08T03:58:24.577Z,62.89
2017-09-08T03:59:05.045Z,62.89
2017-09-08T03:59:45.500Z,62.79
2017-09-08T04:00:25.953Z,62.89
2017-09-08T04:01:06.497Z,62.79
2017-09-08T04:01:46.970Z,62.98
2017-09-08T04:02:27.423Z,62.89
2017-09-08T04:03:07.886Z,62.79
2017-09-08T04:03:48.338Z,62.98
2017-09-08T04:04:28.791Z,62.98
2017-09-08T04:05:09.238Z,62.79
2017-09-08T04:05:49.708Z,62.98
2017-09-08T04:06:30.142Z,62.7
2017-09-08T04:07:10.593Z,62.98
2017-09-08T04:07:51.043Z,62.89
2017-09-08T04:08:31.495Z,62.89
2017-09-08T04:09:11.956Z,62.89
2017-09-08T04:09:52.402Z,62.79
2017-09-08T04:10:32.856Z,62.89
2017-09-08T04:12:45.824Z,62.89
2017-09-08T04:13:26.354Z,62.7
2017-09-08T04:14:06.817Z,62.6
2017-09-08T04:14:47.410Z,62.6
2017-09-08T04:15:27.867Z,62.6
2017-09-08T04:16:08.311Z,62.5
2017-09-08T04:16:48.764Z,62.6
2017-09-08T04:17:29.212Z,62.6
2017-09-08T04:18:09.662Z,62.79
2017-09-08T04:18:50.112Z,62.6
2017-09-08T04:19:30.561Z,62.6
2017-09-08T04:20:11.013Z,62.4
2017-09-08T04:20:51.490Z,62.4
2017-09-08T04:21:31.933Z,62.4
2017-09-08T04:22:12.419Z,62.31
2017-09-08T04:22:52.872Z,62.31
2017-09-08T04:23:33.317Z,62.4
2017-09-08T04:24:13.772Z,62.79
2017-09-08T04:24:54.222Z,62.6
2017-09-08T04:25:34.681Z,62.6
2017-09-08T04:26:15.152Z,62.4
2017-09-08T04:26:55.596Z,62.4
2017-09-08T04:27:36.046Z,62.79
2017-09-08T04:28:16.498Z,62.79
2017-09-08T04:28:56.952Z,62.31
2017-09-08T04:29:37.396Z,62.31
2017-09-08T04:30:17.852Z,62.4
2017-09-08T04:30:58.311Z,62.4
2017-09-08T04:31:38.768Z,62.31
2017-09-08T04:32:19.227Z,62.4
2017-09-08T04:32:59.678Z,62.6
2017-09-08T04:33:40.134Z,62.5
2017-09-08T04:34:20.585Z,62.31
2017-09-08T04:35:01.078Z,62.21
2017-09-08T04:35:41.531Z,62.21
2017-09-08T04:36:21.983Z,62.31
2017-09-08T04:37:02.490Z,62.31
2017-09-08T04:37:42.889Z,62.21
2017-09-08T04:38:23.339Z,62.4
2017-09-08T04:39:03.905Z,62.31
2017-09-08T04:40:51.419Z,62.6
2017-09-08T04:41:31.872Z,62.31
2017-09-08T04:42:12.341Z,62.4
2017-09-08T04:42:52.780Z,62.31
2017-09-08T04:43:33.273Z,62.31
2017-09-08T04:44:13.719Z,62.31
2017-09-08T04:44:54.184Z,62.6
2017-09-08T04:45:34.621Z,62.21
2017-09-08T04:46:15.055Z,62.31
2017-09-08T04:46:55.514Z,62.31
2017-09-08T04:47:35.954Z,62.31
2017-09-08T04:49:28.563Z,62.21
2017-09-08T04:50:09.009Z,62.31
2017-09-08T04:50:49.459Z,62.31
2017-09-08T04:51:29.912Z,62.6
2017-09-08T04:52:10.365Z,62.31
2017-09-08T04:52:50.816Z,62.31
2017-09-08T04:54:43.480Z,62.31
2017-09-08T04:55:23.969Z,62.31
2017-09-08T04:56:04.418Z,62.21
2017-09-08T04:56:44.881Z,62.21
2017-09-08T04:57:25.364Z,62.31
2017-09-08T04:58:05.801Z,62.31
2017-09-08T04:58:46.251Z,62.21
2017-09-08T04:59:26.702Z,62.21
2017-09-08T05:00:07.143Z,62.4
2017-09-08T05:00:47.628Z,62.4
2017-09-08T05:01:28.084Z,62.6
2017-09-08T05:02:08.570Z,62.4
2017-09-08T05:02:49.031Z,62.6
2017-09-08T05:03:29.695Z,62.7
2017-09-08T05:05:17.213Z,62.79
2017-09-08T05:05:57.668Z,62.6
2017-09-08T05:06:38.118Z,62.89
2017-09-08T05:07:18.571Z,62.98
2017-09-08T05:07:59.023Z,62.79
2017-09-08T05:08:39.470Z,62.89
2017-09-08T05:09:19.927Z,62.79
2017-09-08T05:10:00.380Z,62.89
2017-09-08T05:10:40.821Z,62.98
2017-09-08T05:11:21.366Z,62.79
2017-09-08T05:12:01.821Z,62.89
2017-09-08T05:12:42.270Z,62.7
2017-09-08T05:13:22.722Z,62.79
2017-09-08T05:14:03.170Z,62.89
2017-09-08T05:14:43.617Z,62.7
2017-09-08T05:15:24.064Z,62.89
2017-09-08T05:16:04.521Z,62.79
2017-09-08T05:16:44.960Z,62.98
2017-09-08T05:17:25.406Z,62.89
2017-09-08T05:18:05.865Z,62.89
2017-09-08T05:18:46.316Z,62.79
2017-09-08T05:19:26.817Z,62.89
2017-09-08T05:20:07.274Z,62.89
2017-09-08T05:20:47.726Z,62.79
2017-09-08T05:21:28.174Z,62.79
2017-09-08T05:22:08.632Z,62.5
2017-09-08T05:22:49.084Z,63.28
2017-09-08T05:23:29.542Z,63.28
2017-09-08T05:24:09.992Z,63.08
2017-09-08T05:24:50.456Z,63.08
2017-09-08T05:25:30.946Z,63.28
2017-09-08T05:26:11.395Z,63.08
2017-09-08T05:26:51.846Z,63.08
2017-09-08T05:27:32.283Z,63.18
2017-09-08T05:28:12.725Z,63.08
2017-09-08T05:28:53.184Z,63.18
2017-09-08T05:29:33.643Z,63.18
2017-09-08T05:30:14.092Z,62.7
2017-09-08T05:30:54.549Z,63.28
2017-09-08T05:31:35.001Z,62.89
2017-09-08T05:32:15.482Z,62.89
2017-09-08T05:32:55.921Z,63.28
2017-09-08T05:33:36.367Z,62.79
2017-09-08T05:34:16.821Z,62.89
2017-09-08T05:34:57.273Z,62.79
2017-09-08T05:35:37.727Z,62.89
2017-09-08T05:36:18.188Z,62.79
2017-09-08T05:36:58.641Z,62.7
2017-09-08T05:37:39.104Z,62.79
2017-09-08T05:38:19.556Z,62.89
2017-09-08T05:39:00.015Z,62.7
2017-09-08T05:39:40.479Z,62.79
2017-09-08T05:40:20.929Z,62.89
2017-09-08T05:41:01.463Z,62.89
2017-09-08T05:41:41.906Z,62.89
2017-09-08T05:42:22.367Z,62.79
2017-09-08T05:43:02.829Z,62.89
2017-09-08T05:43:43.294Z,62.89
2017-09-08T05:44:23.828Z,62.89
2017-09-08T05:45:04.278Z,62.89
2017-09-08T05:45:44.742Z,62.89
2017-09-08T05:46:25.212Z,62.79
2017-09-08T05:47:05.659Z,62.7
2017-09-08T05:47:46.104Z,62.6
2017-09-08T05:48:26.648Z,62.98
2017-09-08T05:49:07.107Z,62.79
2017-09-08T05:49:47.545Z,62.89
2017-09-08T05:50:28.015Z,62.79
2017-09-08T05:51:08.468Z,62.98
2017-09-08T05:51:48.932Z,62.98
2017-09-08T05:52:29.389Z,62.89
2017-09-08T05:53:09.846Z,62.79
2017-09-08T05:53:50.304Z,62.98
2017-09-08T05:54:30.762Z,62.79
2017-09-08T05:55:11.213Z,62.98
2017-09-08T05:55:51.664Z,62.89
2017-09-08T05:56:32.116Z,62.98
2017-09-08T05:57:12.565Z,62.89
2017-09-08T05:57:53.021Z,62.89
2017-09-08T05:58:33.476Z,62.79
2017-09-08T05:59:13.923Z,62.7
2017-09-08T05:59:54.371Z,62.79
2017-09-08T06:00:34.818Z,62.79
2017-09-08T06:01:15.276Z,62.89
2017-09-08T06:01:55.726Z,62.79
2017-09-08T06:02:36.185Z,62.98
2017-09-08T06:03:16.617Z,62.79
2017-09-08T06:03:57.075Z,62.79
2017-09-08T06:04:37.523Z,62.6
2017-09-08T06:05:17.980Z,62.6
2017-09-08T06:05:58.427Z,62.79
2017-09-08T06:06:38.874Z,62.79
2017-09-08T06:07:19.332Z,62.6
2017-09-08T06:07:59.781Z,62.79
2017-09-08T06:08:40.237Z,62.79
2017-09-08T06:09:20.691Z,62.6
2017-09-08T06:10:01.147Z,62.6
2017-09-08T06:10:41.593Z,62.6
2017-09-08T06:11:22.052Z,62.6
2017-09-08T06:12:02.516Z,62.5
2017-09-08T06:12:42.960Z,62.7
2017-09-08T06:13:23.417Z,62.5
2017-09-08T06:14:03.870Z,62.5
2017-09-08T06:14:44.316Z,62.7
2017-09-08T06:15:24.767Z,62.7
2017-09-08T06:16:05.239Z,62.6
2017-09-08T06:16:45.694Z,62.5
2017-09-08T06:17:26.146Z,62.6
2017-09-08T06:18:06.601Z,62.6
2017-09-08T06:18:47.050Z,62.7
2017-09-08T06:19:27.568Z,62.79
2017-09-08T06:20:08.020Z,62.6
2017-09-08T06:20:48.475Z,62.7
2017-09-08T06:21:28.929Z,62.5
2017-09-08T06:22:09.444Z,62.5
2017-09-08T06:22:49.902Z,62.4
2017-09-08T06:23:30.359Z,62.4
2017-09-08T06:24:10.814Z,62.31
2017-09-08T06:24:51.269Z,62.21
2017-09-08T06:25:31.725Z,62.31
2017-09-08T06:26:12.171Z,62.21
2017-09-08T06:26:52.620Z,62.21
2017-09-08T06:27:33.081Z,62.21
2017-09-08T06:28:13.529Z,62.31
2017-09-08T06:28:53.979Z,62.6
2017-09-08T06:29:34.437Z,62.31
2017-09-08T06:30:14.882Z,62.31
2017-09-08T06:30:55.337Z,62.5
2017-09-08T06:31:35.791Z,62.6
2017-09-08T06:32:16.247Z,62.21
2017-09-08T06:32:56.705Z,62.4
2017-09-08T06:33:37.160Z,62.6
2017-09-08T06:34:17.614Z,62.5
2017-09-08T06:34:58.072Z,62.31
2017-09-08T06:35:38.524Z,62.4
2017-09-08T06:36:18.971Z,62.6
2017-09-08T06:36:59.429Z,62.4
2017-09-08T06:37:39.890Z,62.4
2017-09-08T06:38:20.340Z,62.4
2017-09-08T06:39:00.810Z,62.5
2017-09-08T06:39:41.262Z,62.4
2017-09-08T06:40:21.717Z,62.6
2017-09-08T06:41:02.173Z,62.5
2017-09-08T06:41:42.628Z,62.6
2017-09-08T06:42:23.114Z,62.6
2017-09-08T06:43:03.565Z,62.6
2017-09-08T06:43:44.031Z,62.6
2017-09-08T06:44:24.487Z,62.6
2017-09-08T06:45:04.946Z,62.6
2017-09-08T06:45:45.383Z,62.4
2017-09-08T06:46:25.898Z,62.4
2017-09-08T06:47:06.352Z,62.31
2017-09-08T06:47:46.799Z,62.31
2017-09-08T06:48:27.258Z,62.5
2017-09-08T06:49:07.714Z,62.31
2017-09-08T06:49:48.168Z,62.21
2017-09-08T06:50:28.618Z,62.21
2017-09-08T06:51:09.079Z,62.31
2017-09-08T06:51:49.531Z,62.4
2017-09-08T06:52:29.987Z,62.6
2017-09-08T06:53:10.438Z,62.6
2017-09-08T06:53:50.895Z,62.6
2017-09-08T06:54:31.346Z,62.79
2017-09-08T06:55:11.798Z,62.4
2017-09-08T06:55:52.252Z,62.6
2017-09-08T06:56:32.711Z,62.7
2017-09-08T06:57:13.170Z,62.6
2017-09-08T06:57:53.643Z,62.6
2017-09-08T06:58:34.090Z,62.6
2017-09-08T06:59:14.542Z,62.5
2017-09-08T06:59:54.998Z,62.6
2017-09-08T07:00:35.494Z,62.6
2017-09-08T07:01:15.934Z,62.6
2017-09-08T07:01:56.389Z,62.5
2017-09-08T07:02:36.846Z,62.6
2017-09-08T07:03:17.314Z,62.79
2017-09-08T07:03:57.766Z,62.79
2017-09-08T07:04:38.222Z,62.6
2017-09-08T07:05:18.672Z,62.6
2017-09-08T07:05:59.129Z,62.6
2017-09-08T07:06:39.588Z,62.6
2017-09-08T07:07:20.041Z,62.7
2017-09-08T07:08:00.476Z,62.7
2017-09-08T07:08:40.929Z,62.7
2017-09-08T07:09:21.387Z,62.5
2017-09-08T07:10:02.038Z,62.7
2017-09-08T07:10:42.413Z,62.6
2017-09-08T07:11:22.863Z,62.7
2017-09-08T07:12:03.348Z,62.6
2017-09-08T07:12:43.822Z,62.7
2017-09-08T07:13:24.281Z,62.5
2017-09-08T07:14:04.765Z,62.6
2017-09-08T07:14:45.179Z,62.6
2017-09-08T07:15:25.630Z,62.7
2017-09-08T07:16:06.134Z,62.6
2017-09-08T07:16:46.584Z,62.6
2017-09-08T07:17:27.035Z,62.6
2017-09-08T07:18:07.484Z,62.6
2017-09-08T07:18:47.938Z,62.79
2017-09-08T07:19:28.395Z,62.6
2017-09-08T07:20:08.847Z,62.4
2017-09-08T07:20:49.299Z,62.6
2017-09-08T07:21:29.757Z,62.4
2017-09-08T07:22:10.245Z,62.4
2017-09-08T07:22:50.697Z,62.4
2017-09-08T07:23:31.158Z,62.4
2017-09-08T07:24:11.608Z,62.6
2017-09-08T07:24:52.064Z,62.31
2017-09-08T07:25:32.514Z,62.7
2017-09-08T07:26:12.964Z,62.21
2017-09-08T07:26:53.413Z,62.31
2017-09-08T07:27:33.860Z,62.21
2017-09-08T07:28:14.313Z,62.31
2017-09-08T07:28:54.760Z,62.6
2017-09-08T07:29:35.208Z,62.21
2017-09-08T07:30:15.661Z,62.31
2017-09-08T07:30:56.116Z,62.4
2017-09-08T07:31:36.570Z,62.7
2017-09-08T07:32:17.025Z,62.7
2017-09-08T07:32:57.476Z,62.7
2017-09-08T07:33:37.929Z,62.7
2017-09-08T07:34:18.378Z,62.5
2017-09-08T07:34:58.835Z,62.21
2017-09-08T07:35:39.291Z,62.5
2017-09-08T07:36:19.745Z,62.7
2017-09-08T07:37:00.207Z,62.5
2017-09-08T07:37:40.677Z,62.5
2017-09-08T07:38:21.132Z,62.7
2017-09-08T07:39:01.573Z,62.7
2017-09-08T07:39:42.020Z,62.31
2017-09-08T07:40:22.473Z,62.21
2017-09-08T07:41:02.926Z,62.12
2017-09-08T07:41:43.387Z,62.12
2017-09-08T07:42:23.878Z,62.02
2017-09-08T07:43:04.332Z,62.02
2017-09-08T07:43:44.788Z,62.02
2017-09-08T07:44:25.247Z,62.05
2017-09-08T07:45:05.742Z,61.83
2017-09-08T07:45:46.191Z,62.02
2017-09-08T07:46:26.642Z,61.92
2017-09-08T07:47:07.083Z,62.02
2017-09-08T07:47:47.535Z,62.02
2017-09-08T07:48:27.989Z,62.15
2017-09-08T07:49:08.450Z,62.21
2017-09-08T07:49:48.902Z,62.63
2017-09-08T07:50:29.350Z,62.24
2017-09-08T07:51:09.811Z,62.05
2017-09-08T07:51:50.269Z,61.76
2017-09-08T07:52:30.721Z,61.66
2017-09-08T07:53:11.180Z,61.57
2017-09-08T07:53:51.639Z,61.37
2017-09-08T07:54:32.099Z,61.37
2017-09-08T07:55:12.556Z,61.37
2017-09-08T07:55:53.001Z,61.66
2017-09-08T07:56:33.452Z,61.76
2017-09-08T07:57:13.909Z,61.18
2017-09-08T07:57:54.371Z,61.27
2017-09-08T07:58:34.816Z,61.37
2017-09-08T07:59:15.271Z,61.47
2017-09-08T07:59:55.729Z,61.57
2017-09-08T08:00:36.184Z,61.47
2017-09-08T08:01:16.648Z,61.47
2017-09-08T08:01:57.101Z,61.21
2017-09-08T08:02:37.565Z,60.79
2017-09-08T08:03:18.022Z,60.92
2017-09-08T08:03:58.497Z,61.02
2017-09-08T08:04:38.944Z,61.21
2017-09-08T08:05:19.393Z,61.21
2017-09-08T08:07:37.182Z,60.53
2017-09-08T08:08:17.640Z,60.72
2017-09-08T08:08:58.093Z,60.72
2017-09-08T08:09:38.584Z,60.82
2017-09-08T08:10:19.040Z,60.63
2017-09-08T08:10:59.579Z,60.24
2017-09-08T08:11:40.030Z,60.34
2017-09-08T08:12:20.482Z,60.17
2017-09-08T08:13:00.931Z,59.98
2017-09-08T08:13:41.387Z,60.17
2017-09-08T08:14:21.839Z,60.17
2017-09-08T08:15:02.296Z,60.37
2017-09-08T08:15:42.734Z,60.08
2017-09-08T08:16:23.192Z,60.37
2017-09-08T08:17:03.650Z,60.27
2017-09-08T08:17:44.100Z,60.17
2017-09-08T08:18:24.548Z,60.47
2017-09-08T08:19:05.003Z,60.14
2017-09-08T08:19:45.453Z,60.17
2017-09-08T08:20:25.905Z,59.89
2017-09-08T08:21:06.417Z,60.14
2017-09-08T08:21:46.880Z,60.05
2017-09-08T08:22:27.328Z,60.34
2017-09-08T08:23:07.788Z,60.34
2017-09-08T08:23:48.236Z,60.53
2017-09-08T08:24:28.694Z,60.44
2017-09-08T08:25:09.211Z,60.72
2017-09-08T08:25:49.674Z,60.72
2017-09-08T08:26:30.133Z,60.44
2017-09-08T08:27:10.592Z,60.34
2017-09-08T08:27:51.048Z,60.63
2017-09-08T08:28:31.504Z,60.82
2017-09-08T08:29:11.995Z,60.82
2017-09-08T08:29:52.443Z,60.63
2017-09-08T08:30:32.905Z,60.63
2017-09-08T08:31:13.363Z,60.63
2017-09-08T08:31:53.823Z,60.63
2017-09-08T08:32:34.281Z,60.82
2017-09-08T08:33:14.735Z,60.82
2017-09-08T08:33:55.190Z,60.82
2017-09-08T08:34:35.641Z,60.82
2017-09-08T08:35:16.094Z,61.21
2017-09-08T08:35:56.546Z,61.21
2017-09-08T08:36:36.999Z,61.11
2017-09-08T08:37:17.447Z,60.72
2017-09-08T08:37:57.899Z,61.21
2017-09-08T08:38:38.364Z,61.02
2017-09-08T08:39:18.814Z,60.82
2017-09-08T08:39:59.258Z,60.82
2017-09-08T08:40:39.710Z,60.82
2017-09-08T08:41:20.217Z,60.99
2017-09-08T08:42:00.671Z,60.72
2017-09-08T08:42:41.123Z,60.82
2017-09-08T08:43:21.584Z,61.08
2017-09-08T08:44:02.023Z,61.21
2017-09-08T08:44:42.474Z,61.21
2017-09-08T08:45:22.943Z,61.18
2017-09-08T08:46:03.374Z,60.92
2017-09-08T08:46:43.838Z,60.99
2017-09-08T08:47:24.291Z,60.89
2017-09-08T08:48:04.754Z,60.89
2017-09-08T08:48:45.209Z,60.72
2017-09-08T08:49:25.666Z,60.82
2017-09-08T08:50:06.127Z,60.89
2017-09-08T08:50:46.607Z,61.08
2017-09-08T08:51:27.036Z,61.02
2017-09-08T08:52:07.486Z,60.92
2017-09-08T08:52:47.939Z,61.02
2017-09-08T08:53:28.394Z,61.02
2017-09-08T08:54:08.854Z,61.11
2017-09-08T08:54:49.305Z,60.82
2017-09-08T08:55:29.848Z,61.11
2017-09-08T08:56:10.312Z,61.21
2017-09-08T08:56:50.767Z,61.02
2017-09-08T08:57:31.292Z,61.18